createdAt,value
2019-01-03T00:02:07.206Z,62.40
2019-01-03T00:05:10.222Z,61.70
2019-01-03T00:07:59.892Z,61.90
2019-01-03T00:10:51.201Z,62.10
2019-01-03T00:13:48.162Z,62.00
2019-01-03T00:16:39.322Z,62.60
2019-01-03T00:19:45.538Z,61.90
2019-01-03T00:22:34.863Z,62.40
2019-01-03T00:25:24.477Z,62.30
2019-01-03T00:28:21.121Z,62.20
2019-01-03T00:31:21.273Z,62.20
2019-01-03T00:34:10.868Z,62.50
2019-01-03T00:37:04.818Z,62.20
2019-01-03T00:39:47.484Z,62.60
2019-01-03T00:42:38.435Z,62.80
2019-01-03T00:45:41.538Z,62.70
2019-01-03T00:48:44.728Z,63.00
2019-01-03T00:51:37.086Z,63.20
2019-01-03T00:54:28.090Z,62.90
2019-01-03T00:57:23.507Z,63.80
2019-01-03T01:00:21.562Z,64.20
2019-01-03T01:03:24.413Z,64.50
2019-01-03T01:06:14.062Z,64.60
2019-01-03T01:09:14.112Z,64.90
2019-01-03T01:12:20.502Z,64.60
2019-01-03T01:15:23.692Z,65.10
2019-01-03T01:18:14.651Z,65.00
2019-01-03T01:21:05.746Z,64.70
2019-01-03T01:23:57.313Z,65.60
2019-01-03T01:27:06.490Z,66.40
2019-01-03T01:30:12.154Z,65.80
2019-01-03T01:33:11.819Z,65.80
2019-01-03T01:36:01.221Z,65.80
2019-01-03T01:38:52.183Z,66.20
2019-01-03T01:41:39.343Z,66.40
2019-01-03T01:44:29.011Z,66.40
2019-01-03T01:47:25.177Z,66.80
2019-01-03T01:50:21.482Z,66.50
2019-01-03T01:53:21.367Z,66.20
2019-01-03T01:56:15.431Z,66.80
2019-01-03T01:59:06.435Z,66.70
2019-01-03T02:01:57.541Z,66.90
2019-01-03T02:04:47.185Z,66.70
2019-01-03T02:07:38.139Z,67.10
2019-01-03T02:10:38.575Z,67.30
2019-01-03T02:13:44.730Z,67.50
2019-01-03T02:16:34.378Z,66.70
2019-01-03T02:19:28.407Z,66.80
2019-01-03T02:22:25.225Z,66.70
2019-01-03T02:25:14.573Z,67.30
2019-01-03T02:28:04.159Z,67.80
2019-01-03T02:31:07.365Z,68.40
2019-01-03T02:34:10.477Z,69.10
2019-01-03T02:37:16.558Z,69.00
2019-01-03T02:40:16.697Z,68.90
2019-01-03T02:43:10.645Z,69.50
2019-01-03T02:46:01.695Z,70.00
2019-01-03T02:49:01.891Z,69.60
2019-01-03T02:51:56.035Z,70.20
2019-01-03T02:54:47.024Z,70.10
2019-01-03T02:57:43.833Z,70.50
2019-01-03T03:00:33.829Z,70.70
2019-01-03T03:03:26.828Z,70.50
2019-01-03T03:06:26.950Z,70.70
2019-01-03T03:09:15.924Z,70.70
2019-01-03T03:12:05.513Z,70.50
2019-01-03T03:14:49.731Z,70.70
2019-01-03T03:17:49.554Z,70.50
2019-01-03T03:20:49.834Z,70.80
2019-01-03T03:23:49.678Z,70.00
2019-01-03T03:26:35.567Z,70.50
2019-01-03T03:29:25.172Z,70.10
2019-01-03T03:32:14.781Z,70.10
2019-01-03T03:35:08.913Z,70.30
2019-01-03T03:37:58.327Z,70.60
2019-01-03T03:41:07.660Z,70.80
2019-01-03T03:44:10.471Z,70.70
2019-01-03T03:46:59.544Z,70.60
2019-01-03T03:49:53.531Z,70.90
2019-01-03T03:52:43.049Z,70.50
2019-01-03T03:55:52.281Z,70.60
2019-01-03T03:58:41.673Z,70.90
2019-01-03T04:01:37.942Z,70.70
2019-01-03T04:04:27.551Z,70.30
2019-01-03T04:07:18.651Z,70.50
2019-01-03T04:10:12.717Z,71.10
2019-01-03T04:13:03.710Z,71.20
2019-01-03T04:16:03.821Z,70.70
2019-01-03T04:18:53.417Z,71.10
2019-01-03T04:21:43.057Z,71.50
2019-01-03T04:24:34.075Z,71.80
2019-01-03T04:27:23.688Z,72.20
2019-01-03T04:30:23.938Z,71.70
2019-01-03T04:33:15.052Z,72.00
2019-01-03T04:36:04.631Z,72.20
2019-01-03T04:39:10.777Z,72.10
2019-01-03T04:41:59.999Z,72.60
2019-01-03T04:45:06.308Z,73.00
2019-01-03T04:47:53.707Z,73.10
2019-01-03T04:50:43.415Z,72.30
2019-01-03T04:53:37.426Z,73.00
2019-01-03T04:56:43.605Z,73.20
2019-01-03T04:59:34.615Z,72.50
2019-01-03T05:02:24.768Z,72.30
2019-01-03T05:05:21.901Z,73.00
2019-01-03T05:08:30.992Z,73.20
2019-01-03T05:11:22.082Z,73.30
2019-01-03T05:14:13.142Z,72.90
2019-01-03T05:17:15.995Z,72.20
2019-01-03T05:20:05.579Z,71.70
2019-01-03T05:23:05.628Z,71.80
2019-01-03T05:25:56.633Z,71.70
2019-01-03T05:28:46.239Z,71.50
2019-01-03T05:31:33.920Z,71.80
2019-01-03T05:34:25.074Z,71.90
2019-01-03T05:37:16.100Z,71.80
2019-01-03T05:40:00.357Z,72.00
2019-01-03T05:43:03.301Z,71.70
2019-01-03T05:46:00.356Z,71.40
2019-01-03T05:49:03.518Z,71.70
2019-01-03T05:52:06.561Z,71.90
2019-01-03T05:55:03.647Z,71.80
2019-01-03T05:58:09.506Z,72.10
2019-01-03T06:00:55.680Z,71.90
2019-01-03T06:04:05.011Z,72.10
2019-01-03T06:07:02.024Z,72.60
2019-01-03T06:09:53.029Z,72.60
2019-01-03T06:12:56.081Z,72.50
2019-01-03T06:16:05.490Z,72.00
2019-01-03T06:18:59.429Z,72.30
2019-01-03T06:21:47.993Z,72.80
2019-01-03T06:24:37.694Z,72.30
2019-01-03T06:27:34.897Z,73.10
2019-01-03T06:30:25.218Z,72.80
2019-01-03T06:33:24.916Z,73.20
2019-01-03T06:36:24.803Z,74.00
2019-01-03T06:39:21.523Z,74.40
2019-01-03T06:42:11.575Z,73.70
2019-01-03T06:45:20.427Z,73.40
2019-01-03T06:48:29.634Z,73.30
2019-01-03T06:51:29.599Z,73.00
2019-01-03T06:54:20.549Z,71.80
2019-01-03T06:57:26.570Z,72.80
2019-01-03T07:00:17.680Z,72.20
2019-01-03T07:03:08.686Z,72.30
2019-01-03T07:05:59.650Z,72.40
2019-01-03T07:08:53.534Z,72.90
2019-01-03T07:11:44.499Z,73.50
2019-01-03T07:14:33.990Z,73.20
2019-01-03T07:17:33.117Z,72.90
2019-01-03T07:20:24.585Z,73.00
2019-01-03T07:23:14.305Z,72.40
2019-01-03T07:26:03.746Z,72.90
2019-01-03T07:29:04.776Z,72.60
2019-01-03T07:32:10.885Z,73.20
2019-01-03T07:35:13.478Z,72.80
2019-01-03T07:38:22.666Z,72.80
2019-01-03T07:41:12.040Z,72.90
2019-01-03T07:44:01.805Z,73.00
2019-01-03T07:47:11.074Z,72.60
2019-01-03T07:49:55.347Z,73.30
2019-01-03T07:52:46.307Z,73.60
2019-01-03T07:55:35.625Z,73.40
2019-01-03T07:58:25.217Z,73.40
2019-01-03T08:01:16.319Z,73.90
2019-01-03T08:04:10.081Z,74.20
2019-01-03T08:06:59.657Z,74.50
2019-01-03T08:09:49.319Z,74.40
2019-01-03T08:12:38.862Z,74.30
2019-01-03T08:15:42.339Z,73.90
2019-01-03T08:18:42.372Z,73.40
2019-01-03T08:21:36.610Z,73.40
2019-01-03T08:24:26.113Z,73.80
2019-01-03T08:27:20.212Z,73.40
2019-01-03T08:30:22.931Z,72.60
2019-01-03T08:33:03.215Z,71.80
2019-01-03T08:35:54.158Z,71.30
2019-01-03T08:38:53.975Z,71.10
2019-01-03T08:41:45.074Z,70.90
2019-01-03T08:44:38.768Z,70.30
2019-01-03T08:47:35.998Z,69.10
2019-01-03T08:50:30.521Z,67.70
2019-01-03T08:53:37.186Z,68.10
2019-01-03T08:56:26.655Z,69.10
2019-01-03T08:59:20.733Z,70.00
2019-01-03T09:02:21.028Z,71.00
2019-01-03T09:05:18.089Z,70.40
2019-01-03T09:08:24.395Z,71.00
2019-01-03T09:11:27.240Z,70.70
2019-01-03T09:14:24.377Z,69.80
2019-01-03T09:17:21.514Z,70.50
2019-01-03T09:20:11.207Z,70.00
2019-01-03T09:23:14.440Z,69.60
2019-01-03T09:26:17.583Z,69.70
2019-01-03T09:29:08.789Z,69.40
2019-01-03T09:31:59.842Z,69.40
2019-01-03T09:35:05.866Z,69.10
2019-01-03T09:38:05.931Z,69.30
2019-01-03T09:41:03.560Z,69.30
2019-01-03T09:43:53.269Z,69.10
2019-01-03T09:46:25.453Z,69.50
2019-01-03T09:48:57.663Z,69.40
2019-01-03T09:51:29.883Z,69.90
2019-01-03T09:54:02.194Z,69.30
2019-01-03T09:56:34.447Z,69.20
2019-01-03T09:59:06.760Z,69.00
2019-01-03T10:01:39.123Z,70.00
2019-01-03T10:04:11.556Z,70.50
2019-01-03T10:06:43.862Z,70.50
2019-01-03T10:09:16.085Z,70.10
2019-01-03T10:11:48.502Z,69.30
2019-01-03T10:14:20.920Z,69.00
2019-01-03T10:16:53.126Z,68.60
2019-01-03T10:19:25.337Z,68.80
2019-01-03T10:21:57.562Z,68.70
2019-01-03T10:24:29.888Z,68.80
2019-01-03T10:27:02.402Z,68.70
2019-01-03T10:29:34.609Z,69.00
2019-01-03T10:32:07.127Z,69.20
2019-01-03T10:34:39.352Z,68.40
2019-01-03T10:37:11.559Z,67.60
2019-01-03T10:39:43.881Z,67.30
2019-01-03T10:42:17.473Z,67.00
2019-01-03T10:44:49.779Z,66.30
2019-01-03T10:47:22.107Z,66.20
2019-01-03T10:49:54.321Z,65.40
2019-01-03T10:52:26.522Z,63.90
2019-01-03T10:54:58.739Z,64.70
2019-01-03T10:57:30.997Z,64.20
2019-01-03T11:00:03.313Z,63.40
2019-01-03T11:02:35.648Z,63.00
2019-01-03T11:05:08.217Z,63.50
2019-01-03T11:07:40.435Z,63.50
2019-01-03T11:10:12.847Z,63.20
2019-01-03T11:12:45.166Z,62.80
2019-01-03T11:15:17.377Z,63.10
2019-01-03T11:17:49.594Z,63.60
2019-01-03T11:20:21.910Z,64.40
2019-01-03T11:22:54.077Z,64.30
2019-01-03T11:25:26.292Z,65.20
2019-01-03T11:27:58.460Z,64.90
2019-01-03T11:30:30.779Z,65.00
2019-01-03T11:33:02.990Z,64.90
2019-01-03T11:35:35.209Z,64.30
2019-01-03T11:38:07.536Z,64.20
2019-01-03T11:40:39.854Z,64.90
2019-01-03T11:43:12.062Z,65.30
2019-01-03T11:45:44.380Z,65.10
2019-01-03T11:48:16.580Z,64.50
2019-01-03T11:50:48.806Z,64.60
2019-01-03T11:53:21.012Z,63.60
2019-01-03T11:55:53.370Z,63.50
2019-01-03T11:58:25.670Z,63.20
2019-01-03T12:00:58.159Z,63.10
2019-01-03T12:03:30.364Z,63.30
2019-01-03T12:06:02.777Z,63.40
2019-01-03T12:08:34.988Z,63.50
2019-01-03T12:11:07.395Z,63.40
2019-01-03T12:13:39.600Z,62.20
2019-01-03T12:16:11.814Z,59.10
2019-01-03T12:18:44.033Z,56.20
2019-01-03T12:21:16.359Z,55.30
2019-01-03T12:23:48.585Z,51.90
2019-01-03T12:26:20.910Z,50.40
2019-01-03T12:28:53.126Z,48.20
2019-01-03T12:31:25.569Z,45.20
2019-01-03T12:33:58.044Z,41.50
2019-01-03T12:36:30.527Z,41.30
2019-01-03T12:39:02.890Z,39.80
2019-01-03T12:41:35.279Z,38.30
2019-01-03T12:44:07.650Z,36.90
2019-01-03T12:46:40.017Z,35.60
2019-01-03T12:49:12.393Z,33.90
2019-01-03T12:51:44.859Z,33.80
2019-01-03T12:54:17.228Z,33.90
2019-01-03T12:56:49.748Z,33.00
2019-01-03T12:59:22.122Z,31.90
2019-01-03T13:01:54.494Z,32.10
2019-01-03T13:04:26.966Z,31.60
2019-01-03T13:06:59.447Z,31.10
2019-01-03T13:09:31.925Z,30.70
2019-01-03T13:12:04.405Z,30.00
2019-01-03T13:14:36.783Z,29.70
2019-01-03T13:17:09.357Z,30.30
2019-01-03T13:19:41.725Z,32.20
2019-01-03T13:22:14.108Z,34.80
2019-01-03T13:24:46.473Z,36.70
2019-01-03T13:27:18.718Z,40.10
2019-01-03T13:29:51.024Z,42.50
2019-01-03T13:32:23.233Z,44.80
2019-01-03T13:34:55.444Z,46.00
2019-01-03T13:37:27.646Z,47.70
2019-01-03T13:39:59.948Z,49.10
2019-01-03T13:42:32.174Z,50.60
2019-01-03T13:45:04.593Z,51.00
2019-01-03T13:47:36.912Z,51.70
2019-01-03T13:50:09.999Z,51.80
2019-01-03T13:52:42.209Z,49.80
2019-01-03T13:55:14.666Z,47.00
2019-01-03T13:57:46.868Z,45.00
2019-01-03T14:00:19.272Z,44.60
2019-01-03T14:02:51.491Z,45.60
2019-01-03T14:05:23.686Z,47.60
2019-01-03T14:07:55.971Z,49.80
2019-01-03T14:10:28.174Z,51.90
2019-01-03T14:13:00.478Z,53.40
2019-01-03T14:15:32.676Z,54.60
2019-01-03T14:18:04.964Z,56.30
2019-01-03T14:20:37.175Z,57.70
2019-01-03T14:23:09.384Z,59.00
2019-01-03T14:25:41.691Z,59.60
2019-01-03T14:28:14.106Z,61.00
2019-01-03T14:30:46.313Z,61.80
2019-01-03T14:33:18.524Z,62.30
2019-01-03T14:35:50.834Z,63.90
2019-01-03T14:38:23.152Z,65.20
2019-01-03T14:40:55.356Z,65.40
2019-01-03T14:43:27.577Z,65.60
2019-01-03T14:45:59.787Z,65.90
2019-01-03T14:48:32.006Z,66.60
2019-01-03T14:51:04.212Z,67.30
2019-01-03T14:53:36.730Z,67.70
2019-01-03T14:56:09.185Z,67.90
2019-01-03T14:58:41.398Z,67.70
2019-01-03T15:01:13.613Z,67.70
2019-01-03T15:03:45.837Z,68.40
2019-01-03T15:06:18.047Z,68.20
2019-01-03T15:08:50.256Z,68.60
2019-01-03T15:11:22.456Z,68.90
2019-01-03T15:13:54.771Z,69.40
2019-01-03T15:16:27.071Z,70.00
2019-01-03T15:18:59.286Z,70.20
2019-01-03T15:21:31.491Z,70.90
2019-01-03T15:24:03.706Z,71.70
2019-01-03T15:26:36.013Z,71.90
2019-01-03T15:29:08.226Z,72.60
2019-01-03T15:31:40.442Z,72.80
2019-01-03T15:34:12.659Z,72.90
2019-01-03T15:36:45.169Z,73.20
2019-01-03T15:39:17.379Z,73.60
2019-01-03T15:41:49.588Z,74.40
2019-01-03T15:44:21.895Z,74.50
2019-01-03T15:46:54.205Z,74.90
2019-01-03T15:49:26.429Z,75.40
2019-01-03T15:51:58.640Z,75.90
2019-01-03T15:54:30.855Z,76.90
2019-01-03T15:57:03.210Z,76.80
2019-01-03T15:59:35.415Z,77.10
2019-01-03T16:02:07.922Z,77.60
2019-01-03T16:04:40.133Z,78.00
2019-01-03T16:07:12.441Z,78.80
2019-01-03T16:09:44.654Z,79.30
2019-01-03T16:12:16.970Z,79.70
2019-01-03T16:14:49.186Z,80.80
2019-01-03T16:17:21.398Z,81.20
2019-01-03T16:19:53.708Z,81.80
2019-01-03T16:22:25.920Z,82.50
2019-01-03T16:24:58.134Z,82.70
2019-01-03T16:27:30.339Z,83.30
2019-01-03T16:30:02.960Z,83.60
2019-01-03T16:32:35.169Z,84.00
2019-01-03T16:35:07.690Z,84.50
2019-01-03T16:37:40.099Z,84.80
2019-01-03T16:40:12.697Z,84.90
2019-01-03T16:42:46.246Z,85.30
2019-01-03T16:45:18.654Z,85.60
2019-01-03T16:47:50.876Z,85.60
2019-01-03T16:50:23.205Z,85.60
2019-01-03T16:52:55.520Z,85.50
2019-01-03T16:55:28.039Z,86.20
2019-01-03T16:58:00.244Z,85.90
2019-01-03T17:00:32.670Z,86.50
2019-01-03T17:03:05.066Z,86.50
2019-01-03T17:05:37.279Z,87.30
2019-01-03T17:08:09.585Z,87.30
2019-01-03T17:10:41.793Z,86.80
2019-01-03T17:13:14.088Z,86.60
2019-01-03T17:15:46.410Z,86.80
2019-01-03T17:18:18.715Z,87.20
2019-01-03T17:20:51.027Z,86.90
2019-01-03T17:23:24.248Z,87.30
2019-01-03T17:25:56.728Z,87.30
2019-01-03T17:28:29.040Z,87.00
2019-01-03T17:31:01.446Z,87.60
2019-01-03T17:33:33.769Z,87.70
2019-01-03T17:36:06.180Z,87.90
2019-01-03T17:38:38.389Z,88.10
2019-01-03T17:41:10.703Z,88.00
2019-01-03T17:43:43.031Z,88.50
2019-01-03T17:46:15.445Z,88.60
2019-01-03T17:48:47.799Z,88.90
2019-01-03T17:51:20.019Z,88.90
2019-01-03T17:53:52.226Z,89.00
2019-01-03T17:56:24.592Z,88.60
2019-01-03T17:58:56.809Z,88.50
2019-01-03T18:01:29.167Z,88.50
2019-01-03T18:04:01.439Z,88.20
2019-01-03T18:06:33.864Z,87.90
2019-01-03T18:09:06.873Z,88.20
2019-01-03T18:11:39.094Z,87.50
2019-01-03T18:14:11.515Z,87.20
2019-01-03T18:16:43.726Z,87.70
2019-01-03T18:19:16.028Z,87.60
2019-01-03T18:21:48.349Z,87.10
2019-01-03T18:24:20.660Z,87.50
2019-01-03T18:26:53.055Z,88.10
2019-01-03T18:29:25.367Z,87.80
2019-01-03T18:31:57.583Z,88.00
2019-01-03T18:34:29.786Z,87.70
2019-01-03T18:37:02.115Z,88.00
2019-01-03T18:39:34.335Z,88.10
2019-01-03T18:42:06.656Z,88.20
2019-01-03T18:44:38.899Z,88.30
2019-01-03T18:47:11.117Z,88.20
2019-01-03T18:49:43.323Z,87.60
2019-01-03T18:52:15.895Z,87.50
2019-01-03T18:54:48.098Z,88.20
2019-01-03T18:57:21.314Z,88.60
2019-01-03T18:59:53.727Z,88.20
2019-01-03T19:02:26.036Z,89.30
2019-01-03T19:04:58.448Z,88.70
2019-01-03T19:07:30.654Z,88.60
2019-01-03T19:10:03.024Z,87.70
2019-01-03T19:12:35.241Z,87.90
2019-01-03T19:15:08.699Z,87.60
2019-01-03T19:17:41.014Z,88.00
2019-01-03T19:20:13.818Z,88.20
2019-01-03T19:22:46.016Z,87.80
2019-01-03T19:25:21.438Z,88.00
2019-01-03T19:27:53.733Z,88.40
2019-01-03T19:30:25.997Z,88.70
2019-01-03T19:32:58.209Z,87.30
2019-01-03T19:35:30.373Z,88.00
2019-01-03T19:38:02.587Z,87.30
2019-01-03T19:40:35.053Z,87.70
2019-01-03T19:43:07.464Z,87.80
2019-01-03T19:45:39.627Z,87.80
2019-01-03T19:48:11.828Z,87.60
2019-01-03T19:50:43.993Z,87.70
2019-01-03T19:53:16.217Z,87.40
2019-01-03T19:55:48.432Z,87.10
2019-01-03T19:58:20.749Z,87.60
2019-01-03T20:00:52.994Z,87.50
2019-01-03T20:03:25.216Z,87.20
2019-01-03T20:05:57.486Z,87.90
2019-01-03T20:08:29.896Z,87.50
2019-01-03T20:11:02.664Z,88.10
2019-01-03T20:13:34.875Z,87.80
2019-01-03T20:16:07.340Z,86.90
2019-01-03T20:18:39.655Z,88.50
2019-01-03T20:21:11.828Z,88.10
2019-01-03T20:23:44.233Z,87.90
2019-01-03T20:26:16.413Z,87.70
2019-01-03T20:28:48.805Z,87.80
2019-01-03T20:31:21.082Z,87.80
2019-01-03T20:33:53.399Z,87.80
2019-01-03T20:36:25.582Z,87.90
2019-01-03T20:38:57.898Z,87.90
2019-01-03T20:41:30.165Z,87.70
2019-01-03T20:44:02.478Z,87.50
2019-01-03T20:46:34.651Z,86.90
2019-01-03T20:49:06.965Z,86.80
2019-01-03T20:51:39.130Z,86.80
2019-01-03T20:54:11.543Z,87.00
2019-01-03T20:56:43.854Z,87.30
2019-01-03T20:59:16.072Z,86.60
2019-01-03T21:01:48.344Z,86.80
2019-01-03T21:04:20.571Z,86.10
2019-01-03T21:06:52.800Z,86.10
2019-01-03T21:09:25.108Z,86.30
2019-01-03T21:11:57.278Z,85.90
2019-01-03T21:14:29.483Z,86.50
2019-01-03T21:17:01.653Z,86.80
2019-01-03T21:19:34.111Z,86.60
2019-01-03T21:22:07.642Z,86.10
2019-01-03T21:24:39.999Z,85.60
2019-01-03T21:27:12.261Z,85.90
2019-01-03T21:29:44.575Z,86.20
2019-01-03T21:32:17.040Z,86.50
2019-01-03T21:34:49.340Z,86.00
2019-01-03T21:37:21.508Z,85.60
2019-01-03T21:39:53.925Z,85.30
2019-01-03T21:42:26.287Z,85.30
2019-01-03T21:44:58.700Z,84.90
2019-01-03T21:47:30.968Z,85.20
2019-01-03T21:50:03.383Z,85.20
2019-01-03T21:52:35.759Z,84.90
2019-01-03T21:55:08.329Z,85.00
2019-01-03T21:57:40.489Z,84.60
2019-01-03T22:00:14.755Z,84.50
2019-01-03T22:02:47.022Z,84.70
2019-01-03T22:05:19.394Z,85.00
2019-01-03T22:07:51.551Z,85.50
2019-01-03T22:10:23.848Z,85.30
2019-01-03T22:12:56.115Z,84.70
2019-01-03T22:15:28.431Z,84.70
2019-01-03T22:18:00.602Z,84.50
2019-01-03T22:20:32.927Z,84.70
2019-01-03T22:23:05.197Z,84.20
2019-01-03T22:25:37.398Z,83.90
2019-01-03T22:28:09.659Z,84.80
2019-01-03T22:30:42.348Z,85.10
2019-01-03T22:33:14.504Z,84.50
2019-01-03T22:35:46.712Z,84.10
2019-01-03T22:38:18.879Z,84.10
2019-01-03T22:40:51.190Z,84.10
2019-01-03T22:43:23.459Z,84.70
2019-01-03T22:45:55.773Z,84.90
2019-01-03T22:48:27.936Z,85.40
2019-01-03T22:51:00.347Z,85.90
2019-01-03T22:53:32.652Z,85.50
2019-01-03T22:56:05.019Z,85.20
2019-01-03T22:58:37.182Z,85.20
2019-01-03T23:01:10.268Z,85.70
2019-01-03T23:03:42.545Z,84.80
2019-01-03T23:06:14.854Z,84.70
2019-01-03T23:08:47.071Z,85.30
2019-01-03T23:11:19.485Z,84.70
2019-01-03T23:13:51.703Z,85.10
2019-01-03T23:16:24.015Z,85.00
2019-01-03T23:18:56.386Z,84.90
2019-01-03T23:21:28.601Z,85.30
2019-01-03T23:24:00.909Z,85.70
2019-01-03T23:26:33.344Z,85.40
2019-01-03T23:29:05.552Z,85.70
2019-01-03T23:31:37.756Z,85.30
2019-01-03T23:34:10.077Z,85.30
2019-01-03T23:36:42.274Z,85.20
2019-01-03T23:39:14.497Z,85.10
2019-01-03T23:41:46.813Z,85.10
2019-01-03T23:44:19.034Z,85.00
2019-01-03T23:46:51.665Z,84.80
2019-01-03T23:49:23.937Z,85.50
2019-01-03T23:51:56.246Z,85.10
2019-01-03T23:54:28.552Z,85.10
2019-01-03T23:57:00.969Z,86.20
2019-01-03T23:59:33.230Z,86.10
